createdAt,value
2019-05-29T00:00:37.863Z,10.03
2019-05-29T00:03:08.264Z,9.94
2019-05-29T00:05:37.782Z,9.83
2019-05-29T00:08:08.220Z,9.77
2019-05-29T00:10:37.679Z,9.66
2019-05-29T00:13:08.108Z,9.68
2019-05-29T00:15:37.912Z,9.65
2019-05-29T00:18:08.324Z,9.61
2019-05-29T00:20:37.726Z,9.60
2019-05-29T00:23:08.319Z,9.59
2019-05-29T00:25:37.916Z,9.64
2019-05-29T00:28:08.433Z,9.66
2019-05-29T00:30:38.677Z,9.62
2019-05-29T00:33:08.082Z,9.65
2019-05-29T00:35:37.469Z,9.58
2019-05-29T00:38:07.033Z,9.57
2019-05-29T00:40:36.432Z,9.62
2019-05-29T00:43:07.192Z,9.61
2019-05-29T00:45:36.798Z,9.56
2019-05-29T00:48:06.197Z,9.51
2019-05-29T00:50:35.593Z,9.46
2019-05-29T00:53:05.137Z,9.42
2019-05-29T00:55:34.521Z,9.42
2019-05-29T00:58:03.999Z,9.42
2019-05-29T01:00:33.645Z,9.38
2019-05-29T01:03:03.069Z,9.40
2019-05-29T01:05:32.452Z,9.36
2019-05-29T01:08:01.976Z,9.32
2019-05-29T01:10:31.378Z,9.33
2019-05-29T01:13:00.787Z,9.32
2019-05-29T01:15:30.266Z,9.31
2019-05-29T01:17:59.688Z,9.29
2019-05-29T01:20:29.081Z,9.22
2019-05-29T01:22:58.597Z,9.22
2019-05-29T01:25:27.980Z,9.21
2019-05-29T01:27:57.397Z,9.27
2019-05-29T01:30:26.796Z,9.29
2019-05-29T01:32:56.194Z,9.28
2019-05-29T01:35:25.583Z,9.25
2019-05-29T01:37:55.028Z,9.18
2019-05-29T01:40:27.843Z,9.11
2019-05-29T01:42:55.564Z,9.10
2019-05-29T01:45:24.962Z,9.10
2019-05-29T01:47:54.352Z,9.05
2019-05-29T01:50:23.861Z,8.98
2019-05-29T01:52:53.392Z,8.94
2019-05-29T01:55:23.829Z,8.93
2019-05-29T01:57:53.353Z,8.90
2019-05-29T02:00:24.107Z,8.85
2019-05-29T02:02:53.610Z,8.82
2019-05-29T02:05:24.154Z,8.78
2019-05-29T02:07:53.621Z,8.74
2019-05-29T02:10:24.256Z,8.75
2019-05-29T02:12:53.784Z,8.71
2019-05-29T02:15:31.621Z,8.74
2019-05-29T02:17:54.527Z,8.73
2019-05-29T02:20:25.226Z,8.70
2019-05-29T02:22:54.773Z,8.70
2019-05-29T02:25:24.550Z,8.68
2019-05-29T02:27:53.953Z,8.68
2019-05-29T02:30:27.814Z,8.69
2019-05-29T02:32:55.048Z,8.72
2019-05-29T02:35:25.198Z,8.64
2019-05-29T02:37:55.542Z,8.61
2019-05-29T02:40:27.587Z,8.56
2019-05-29T02:42:56.027Z,8.59
2019-05-29T02:45:45.767Z,8.61
2019-05-29T02:47:56.592Z,8.57
2019-05-29T02:50:26.797Z,8.56
2019-05-29T02:52:57.133Z,8.55
2019-05-29T02:55:27.011Z,8.60
2019-05-29T02:57:57.168Z,8.65
2019-05-29T03:00:50.981Z,8.69
2019-05-29T03:03:23.514Z,8.72
2019-05-29T03:05:54.054Z,8.71
2019-05-29T03:08:24.594Z,8.63
2019-05-29T03:10:54.702Z,8.57
2019-05-29T03:13:25.489Z,8.46
2019-05-29T03:16:09.718Z,8.39
2019-05-29T03:18:27.924Z,8.40
2019-05-29T03:20:57.375Z,8.39
2019-05-29T03:23:28.833Z,8.33
2019-05-29T03:25:57.879Z,8.30
2019-05-29T03:28:27.583Z,8.30
2019-05-29T03:30:57.037Z,8.29
2019-05-29T03:33:28.581Z,8.24
2019-05-29T03:35:57.636Z,8.23
2019-05-29T03:38:28.270Z,8.24
2019-05-29T03:40:57.811Z,8.24
2019-05-29T03:43:28.572Z,8.25
2019-05-29T03:45:58.205Z,8.19
2019-05-29T03:48:27.884Z,8.17
2019-05-29T03:50:57.382Z,8.17
2019-05-29T03:53:27.122Z,8.16
2019-05-29T03:55:56.559Z,8.06
2019-05-29T03:58:26.482Z,8.09
2019-05-29T04:00:55.921Z,8.13
2019-05-29T04:03:26.751Z,8.16
2019-05-29T04:05:56.317Z,8.20
2019-05-29T04:08:27.250Z,8.20
2019-05-29T04:10:57.049Z,8.20
2019-05-29T04:13:27.497Z,8.25
2019-05-29T04:15:58.982Z,8.29
2019-05-29T04:18:29.717Z,8.40
2019-05-29T04:21:00.539Z,8.48
2019-05-29T04:23:34.026Z,8.56
2019-05-29T04:26:05.395Z,8.68
2019-05-29T04:28:37.313Z,8.81
2019-05-29T04:31:06.612Z,8.86
2019-05-29T04:33:36.791Z,9.00
2019-05-29T04:36:06.738Z,9.21
2019-05-29T04:38:37.827Z,9.33
2019-05-29T04:41:08.098Z,9.34
2019-05-29T04:43:39.646Z,9.42
2019-05-29T04:46:08.630Z,9.51
2019-05-29T04:48:40.212Z,9.56
2019-05-29T04:51:09.152Z,9.66
2019-05-29T04:53:39.888Z,9.70
2019-05-29T04:56:09.543Z,9.76
2019-05-29T04:58:39.126Z,9.93
2019-05-29T05:01:08.635Z,10.19
2019-05-29T05:03:39.136Z,10.44
2019-05-29T05:06:08.810Z,10.60
2019-05-29T05:08:39.537Z,10.67
2019-05-29T05:11:10.472Z,10.79
2019-05-29T05:13:40.040Z,10.93
2019-05-29T05:16:09.459Z,11.05
2019-05-29T05:18:40.058Z,11.10
2019-05-29T05:21:09.801Z,11.25
2019-05-29T05:23:40.490Z,11.31
2019-05-29T05:26:10.361Z,11.38
2019-05-29T05:28:43.986Z,11.42
2019-05-29T05:31:10.899Z,11.52
2019-05-29T05:33:41.023Z,11.68
2019-05-29T05:36:10.596Z,11.83
2019-05-29T05:38:41.065Z,12.04
2019-05-29T05:41:10.780Z,12.13
2019-05-29T05:43:41.417Z,12.24
2019-05-29T05:46:11.093Z,12.36
2019-05-29T05:48:41.480Z,12.45
2019-05-29T05:51:11.180Z,12.49
2019-05-29T05:53:41.759Z,12.58
2019-05-29T05:56:11.448Z,12.67
2019-05-29T05:58:42.303Z,12.68
2019-05-29T06:01:11.870Z,12.71
2019-05-29T06:03:42.496Z,12.78
2019-05-29T06:06:12.141Z,12.76
2019-05-29T06:08:42.442Z,12.82
2019-05-29T06:11:12.148Z,12.77
2019-05-29T06:13:42.770Z,12.89
2019-05-29T06:16:12.524Z,12.92
2019-05-29T06:18:43.079Z,13.13
2019-05-29T06:21:13.969Z,13.55
2019-05-29T06:23:43.851Z,14.07
2019-05-29T06:26:13.655Z,14.36
2019-05-29T06:28:43.589Z,14.73
2019-05-29T06:31:13.020Z,14.67
2019-05-29T06:33:43.678Z,14.98
2019-05-29T06:36:13.444Z,15.03
2019-05-29T06:38:44.225Z,15.15
2019-05-29T06:41:14.124Z,15.29
2019-05-29T06:43:44.318Z,15.22
2019-05-29T06:46:14.050Z,15.20
2019-05-29T06:48:56.235Z,15.15
2019-05-29T06:51:14.580Z,15.16
2019-05-29T06:53:44.242Z,15.03
2019-05-29T06:56:13.970Z,15.73
2019-05-29T06:58:44.327Z,16.53
2019-05-29T07:01:13.905Z,17.02
2019-05-29T07:03:44.047Z,16.98
2019-05-29T07:06:13.647Z,16.75
2019-05-29T07:08:47.330Z,16.56
2019-05-29T07:11:14.181Z,16.74
2019-05-29T07:13:47.124Z,16.74
2019-05-29T07:16:14.714Z,16.52
2019-05-29T07:19:18.356Z,16.74
2019-05-29T07:21:15.998Z,16.52
2019-05-29T07:23:47.007Z,16.58
2019-05-29T07:26:16.526Z,16.55
2019-05-29T07:29:03.025Z,16.63
2019-05-29T07:31:17.092Z,16.64
2019-05-29T07:33:47.402Z,16.75
2019-05-29T07:36:16.894Z,16.81
2019-05-29T07:39:01.956Z,17.25
2019-05-29T07:41:17.429Z,17.87
2019-05-29T07:43:47.990Z,18.39
2019-05-29T07:46:17.603Z,18.71
2019-05-29T07:48:48.496Z,19.03
2019-05-29T07:51:18.250Z,19.08
2019-05-29T07:53:48.753Z,19.14
2019-05-29T07:56:22.646Z,19.19
2019-05-29T07:59:01.656Z,19.14
2019-05-29T08:01:20.573Z,19.29
2019-05-29T08:03:49.987Z,19.30
2019-05-29T08:06:19.482Z,18.88
2019-05-29T08:08:49.571Z,19.18
2019-05-29T08:11:19.093Z,19.32
2019-05-29T08:13:49.865Z,19.48
2019-05-29T08:16:19.472Z,19.93
2019-05-29T08:18:52.490Z,20.61
2019-05-29T08:21:19.986Z,20.40
2019-05-29T08:23:50.632Z,20.63
2019-05-29T08:26:20.166Z,20.78
2019-05-29T08:28:50.946Z,20.93
2019-05-29T08:31:20.546Z,20.94
2019-05-29T08:33:51.221Z,20.69
2019-05-29T08:36:20.925Z,20.44
2019-05-29T08:38:51.531Z,20.13
2019-05-29T08:41:21.255Z,19.69
2019-05-29T08:43:50.896Z,19.41
2019-05-29T08:46:20.528Z,19.30
2019-05-29T08:48:50.137Z,18.71
2019-05-29T08:51:19.614Z,18.54
2019-05-29T08:53:51.891Z,18.99
2019-05-29T08:56:20.128Z,19.21
2019-05-29T08:58:50.624Z,19.50
2019-05-29T09:01:20.215Z,19.18
2019-05-29T09:03:51.227Z,19.06
2019-05-29T09:06:21.069Z,18.87
2019-05-29T09:08:53.964Z,19.08
2019-05-29T09:11:21.959Z,19.98
2019-05-29T09:13:51.385Z,20.76
2019-05-29T09:16:20.920Z,21.00
2019-05-29T09:18:50.372Z,21.29
2019-05-29T09:21:20.652Z,20.63
2019-05-29T09:23:50.180Z,20.32
2019-05-29T09:26:23.036Z,20.36
2019-05-29T09:28:50.708Z,19.85
2019-05-29T09:31:20.391Z,20.37
2019-05-29T09:33:50.286Z,20.51
2019-05-29T09:36:20.740Z,21.27
2019-05-29T09:38:50.625Z,22.10
2019-05-29T09:41:21.727Z,21.74
2019-05-29T09:43:59.307Z,21.52
2019-05-29T09:46:23.678Z,21.17
2019-05-29T09:48:53.304Z,22.00
2019-05-29T09:51:22.739Z,22.33
2019-05-29T09:53:53.586Z,24.13
2019-05-29T09:56:23.414Z,26.68
2019-05-29T09:58:55.281Z,26.94
2019-05-29T10:01:25.436Z,26.69
2019-05-29T10:03:57.072Z,25.11
2019-05-29T10:06:26.330Z,24.28
2019-05-29T10:08:56.294Z,23.09
2019-05-29T10:11:26.209Z,22.55
2019-05-29T10:13:56.879Z,22.54
2019-05-29T10:16:26.939Z,21.67
2019-05-29T10:18:58.511Z,21.11
2019-05-29T10:21:39.337Z,20.84
2019-05-29T10:23:59.619Z,20.88
2019-05-29T10:26:29.144Z,20.96
2019-05-29T10:29:07.349Z,20.90
2019-05-29T10:31:29.657Z,20.66
2019-05-29T10:33:59.052Z,20.83
2019-05-29T10:36:28.526Z,20.96
2019-05-29T10:38:57.936Z,21.98
2019-05-29T10:41:27.329Z,22.81
2019-05-29T10:43:56.819Z,25.66
2019-05-29T10:46:26.282Z,28.87
2019-05-29T10:48:56.675Z,30.77
2019-05-29T10:51:26.202Z,32.03
2019-05-29T10:53:58.345Z,30.85
2019-05-29T10:56:26.785Z,30.08
2019-05-29T10:58:59.840Z,28.62
2019-05-29T11:01:27.344Z,27.52
2019-05-29T11:03:56.776Z,27.22
2019-05-29T11:06:26.197Z,28.38
2019-05-29T11:08:56.293Z,30.74
2019-05-29T11:11:26.007Z,32.16
2019-05-29T11:13:55.440Z,33.93
2019-05-29T11:16:24.826Z,35.67
2019-05-29T11:18:55.337Z,36.81
2019-05-29T11:21:24.781Z,33.84
2019-05-29T11:23:54.271Z,30.50
2019-05-29T11:26:23.680Z,28.77
2019-05-29T11:28:54.366Z,27.17
2019-05-29T11:31:23.883Z,25.97
2019-05-29T11:33:53.297Z,25.61
2019-05-29T11:36:22.693Z,23.87
2019-05-29T11:38:52.562Z,23.87
2019-05-29T11:41:26.224Z,23.49
2019-05-29T11:43:53.213Z,22.79
2019-05-29T11:46:22.607Z,22.67
2019-05-29T11:48:53.134Z,22.39
2019-05-29T11:51:22.717Z,22.21
2019-05-29T11:53:53.335Z,22.12
2019-05-29T11:56:22.809Z,23.91
2019-05-29T11:58:52.784Z,24.00
2019-05-29T12:01:22.267Z,23.77
2019-05-29T12:04:13.533Z,23.10
2019-05-29T12:06:22.782Z,22.35
2019-05-29T12:08:53.503Z,21.83
2019-05-29T12:11:23.181Z,21.77
2019-05-29T12:13:54.178Z,21.75
2019-05-29T12:16:23.788Z,21.94
2019-05-29T12:18:53.625Z,22.40
2019-05-29T12:21:23.126Z,22.65
2019-05-29T12:23:52.644Z,22.72
2019-05-29T12:26:23.186Z,23.77
2019-05-29T12:28:53.929Z,24.27
2019-05-29T12:31:23.977Z,24.65
2019-05-29T12:33:55.006Z,24.28
2019-05-29T12:36:24.548Z,24.86
2019-05-29T12:38:55.118Z,24.78
2019-05-29T12:41:24.693Z,24.46
2019-05-29T12:43:55.206Z,24.59
2019-05-29T12:46:24.694Z,24.28
2019-05-29T12:48:55.279Z,24.70
2019-05-29T12:51:24.746Z,25.41
2019-05-29T12:53:54.164Z,25.04
2019-05-29T12:56:23.662Z,25.78
2019-05-29T12:58:54.101Z,25.46
2019-05-29T13:01:23.584Z,25.70
2019-05-29T13:03:54.146Z,25.28
2019-05-29T13:06:23.586Z,25.22
2019-05-29T13:08:54.444Z,24.91
2019-05-29T13:11:24.169Z,24.73
2019-05-29T13:13:54.355Z,24.10
2019-05-29T13:16:23.891Z,23.80
2019-05-29T13:18:54.746Z,23.72
2019-05-29T13:21:24.344Z,24.07
2019-05-29T13:24:00.963Z,24.40
2019-05-29T13:26:29.243Z,25.08
2019-05-29T13:28:59.721Z,24.47
2019-05-29T13:31:29.222Z,24.28
2019-05-29T13:33:58.633Z,24.35
2019-05-29T13:36:28.313Z,23.81
2019-05-29T13:38:58.068Z,23.67
2019-05-29T13:41:27.545Z,23.71
2019-05-29T13:43:58.306Z,23.38
2019-05-29T13:46:27.868Z,22.94
2019-05-29T13:48:58.792Z,22.82
2019-05-29T13:51:28.414Z,22.61
2019-05-29T13:54:03.845Z,22.57
2019-05-29T13:56:29.001Z,22.29
2019-05-29T13:58:59.786Z,22.34
2019-05-29T14:01:29.263Z,22.47
2019-05-29T14:03:58.673Z,22.76
2019-05-29T14:06:28.071Z,23.11
2019-05-29T14:08:58.858Z,23.21
2019-05-29T14:11:28.399Z,23.58
2019-05-29T14:13:59.109Z,23.84
2019-05-29T14:16:28.698Z,24.30
2019-05-29T14:18:58.146Z,24.83
2019-05-29T14:21:27.556Z,25.16
2019-05-29T14:23:57.018Z,24.94
2019-05-29T14:26:26.409Z,24.89
2019-05-29T14:28:55.833Z,24.81
2019-05-29T14:31:25.211Z,24.84
2019-05-29T14:33:54.632Z,24.79
2019-05-29T14:36:24.029Z,24.75
2019-05-29T14:38:53.464Z,24.29
2019-05-29T14:41:22.853Z,24.81
2019-05-29T14:43:52.290Z,25.04
2019-05-29T14:46:21.713Z,24.95
2019-05-29T14:48:51.221Z,24.48
2019-05-29T14:51:20.739Z,24.25
2019-05-29T14:53:50.146Z,23.97
2019-05-29T14:56:19.855Z,23.66
2019-05-29T14:58:49.347Z,23.35
2019-05-29T15:01:18.860Z,23.34
2019-05-29T15:03:48.251Z,23.28
2019-05-29T15:06:17.779Z,23.35
2019-05-29T15:08:47.171Z,23.04
2019-05-29T15:11:16.593Z,22.70
2019-05-29T15:13:46.002Z,22.33
2019-05-29T15:16:15.412Z,22.07
2019-05-29T15:18:44.886Z,22.15
2019-05-29T15:21:15.343Z,22.05
2019-05-29T15:23:44.885Z,21.76
2019-05-29T15:26:15.819Z,21.37
2019-05-29T15:28:45.212Z,21.45
2019-05-29T15:31:14.719Z,21.65
2019-05-29T15:33:44.073Z,21.50
2019-05-29T15:36:14.588Z,21.38
2019-05-29T15:38:44.088Z,21.10
2019-05-29T15:41:14.769Z,21.02
2019-05-29T15:43:44.220Z,21.10
2019-05-29T15:46:15.927Z,21.14
2019-05-29T15:48:44.730Z,21.12
2019-05-29T15:51:15.121Z,21.07
2019-05-29T15:53:44.543Z,20.96
2019-05-29T15:56:21.672Z,20.88
2019-05-29T15:58:45.147Z,20.95
2019-05-29T16:01:15.741Z,20.85
2019-05-29T16:03:45.250Z,20.70
2019-05-29T16:06:15.772Z,20.76
2019-05-29T16:08:45.358Z,20.74
2019-05-29T16:11:14.767Z,20.75
2019-05-29T16:13:44.182Z,20.74
2019-05-29T16:16:13.599Z,20.60
2019-05-29T16:18:43.013Z,20.67
2019-05-29T16:21:12.603Z,20.73
2019-05-29T16:23:42.036Z,20.70
2019-05-29T16:26:11.480Z,20.69
2019-05-29T16:28:41.038Z,20.75
2019-05-29T16:31:10.667Z,20.74
2019-05-29T16:33:40.224Z,20.72
2019-05-29T16:36:09.687Z,20.70
2019-05-29T16:38:39.075Z,20.64
2019-05-29T16:41:08.491Z,20.39
2019-05-29T16:43:37.885Z,20.33
2019-05-29T16:46:07.293Z,20.21
2019-05-29T16:48:36.697Z,20.05
2019-05-29T16:51:06.193Z,20.04
2019-05-29T16:53:35.679Z,19.92
2019-05-29T16:56:05.288Z,19.86
2019-05-29T16:58:34.682Z,19.90
2019-05-29T17:01:04.272Z,19.84
2019-05-29T17:03:33.681Z,19.71
2019-05-29T17:06:03.130Z,19.57
2019-05-29T17:08:32.515Z,19.44
2019-05-29T17:11:04.860Z,19.31
2019-05-29T17:13:33.131Z,19.09
2019-05-29T17:16:02.560Z,18.94
2019-05-29T17:18:32.049Z,18.89
2019-05-29T17:21:01.508Z,18.84
2019-05-29T17:23:30.901Z,18.79
2019-05-29T17:26:10.138Z,18.65
2019-05-29T17:28:31.402Z,18.61
2019-05-29T17:31:02.336Z,18.42
2019-05-29T17:33:32.047Z,18.24
2019-05-29T17:36:01.477Z,18.27
2019-05-29T17:38:30.863Z,18.18
2019-05-29T17:41:00.287Z,18.22
2019-05-29T17:43:29.690Z,18.17
2019-05-29T17:45:59.100Z,18.13
2019-05-29T17:48:28.498Z,18.19
2019-05-29T17:50:57.970Z,18.25
2019-05-29T17:53:27.500Z,18.33
2019-05-29T17:55:56.896Z,18.43
2019-05-29T17:58:26.741Z,18.54
2019-05-29T18:00:56.191Z,18.70
2019-05-29T18:03:26.364Z,18.86
2019-05-29T18:05:55.794Z,18.87
2019-05-29T18:08:25.227Z,18.97
2019-05-29T18:10:54.627Z,19.01
2019-05-29T18:13:25.266Z,18.96
2019-05-29T18:15:54.724Z,18.89
2019-05-29T18:18:24.130Z,18.92
2019-05-29T18:20:53.540Z,18.86
2019-05-29T18:23:24.180Z,18.93
2019-05-29T18:25:54.991Z,18.81
2019-05-29T18:28:24.446Z,18.77
2019-05-29T18:30:53.837Z,18.80
2019-05-29T18:33:24.976Z,18.71
2019-05-29T18:35:54.366Z,18.62
2019-05-29T18:38:24.468Z,18.59
2019-05-29T18:40:53.894Z,18.53
2019-05-29T18:43:24.490Z,18.53
2019-05-29T18:45:53.913Z,18.56
2019-05-29T18:48:23.321Z,18.49
2019-05-29T18:50:52.739Z,18.47
2019-05-29T18:53:22.750Z,18.39
2019-05-29T18:55:52.134Z,18.35
2019-05-29T18:58:22.249Z,18.24
2019-05-29T19:00:51.643Z,18.32
2019-05-29T19:03:21.404Z,18.29
2019-05-29T19:05:50.985Z,18.13
2019-05-29T19:08:21.578Z,17.96
2019-05-29T19:10:51.131Z,17.84
2019-05-29T19:13:21.686Z,17.71
2019-05-29T19:15:51.138Z,17.52
2019-05-29T19:18:21.926Z,17.37
2019-05-29T19:20:51.491Z,17.17
2019-05-29T19:23:20.909Z,16.97
2019-05-29T19:25:50.306Z,16.85
2019-05-29T19:28:19.719Z,16.71
2019-05-29T19:30:49.207Z,16.56
2019-05-29T19:33:18.639Z,16.46
2019-05-29T19:35:48.034Z,16.33
2019-05-29T19:38:17.551Z,16.28
2019-05-29T19:40:47.024Z,16.20
2019-05-29T19:43:16.438Z,16.19
2019-05-29T19:45:46.010Z,16.15
2019-05-29T19:48:15.448Z,16.13
2019-05-29T19:50:44.841Z,16.10
2019-05-29T19:53:14.270Z,16.01
2019-05-29T19:55:43.675Z,15.91
2019-05-29T19:58:13.082Z,15.78
2019-05-29T20:00:42.472Z,15.67
2019-05-29T20:03:11.888Z,15.54
2019-05-29T20:05:41.344Z,15.43
2019-05-29T20:08:10.760Z,15.32
2019-05-29T20:10:40.158Z,15.28
2019-05-29T20:13:09.574Z,15.20
2019-05-29T20:15:38.988Z,15.14
2019-05-29T20:18:08.475Z,15.05
2019-05-29T20:20:38.734Z,14.97
2019-05-29T20:23:08.180Z,14.93
2019-05-29T20:25:37.593Z,14.90
2019-05-29T20:28:07.337Z,14.78
2019-05-29T20:30:36.730Z,14.67
2019-05-29T20:33:06.280Z,14.59
2019-05-29T20:35:36.935Z,14.52
2019-05-29T20:38:06.987Z,14.45
2019-05-29T20:40:37.293Z,14.40
2019-05-29T20:43:06.886Z,14.36
2019-05-29T20:45:37.404Z,14.27
2019-05-29T20:48:07.144Z,14.19
2019-05-29T20:50:37.009Z,14.16
2019-05-29T20:53:06.544Z,14.09
2019-05-29T20:55:35.954Z,14.00
2019-05-29T20:58:21.528Z,14.00
2019-05-29T21:00:36.526Z,13.96
2019-05-29T21:03:05.940Z,13.89
2019-05-29T21:05:36.387Z,13.76
2019-05-29T21:08:06.007Z,13.74
2019-05-29T21:10:35.443Z,13.68
2019-05-29T21:13:04.913Z,13.67
2019-05-29T21:15:35.494Z,13.58
2019-05-29T21:18:05.158Z,13.50
2019-05-29T21:20:34.609Z,13.47
2019-05-29T21:23:04.642Z,13.41
2019-05-29T21:25:34.597Z,13.34
2019-05-29T21:28:04.206Z,13.30
2019-05-29T21:30:33.629Z,13.25
2019-05-29T21:33:03.025Z,13.26
2019-05-29T21:35:32.462Z,13.24
2019-05-29T21:38:01.862Z,13.22
2019-05-29T21:40:31.342Z,13.16
2019-05-29T21:43:00.744Z,13.13
2019-05-29T21:45:30.200Z,13.09
2019-05-29T21:47:59.565Z,13.06
2019-05-29T21:50:29.061Z,13.05
2019-05-29T21:52:58.541Z,13.03
2019-05-29T21:55:27.963Z,12.97
2019-05-29T21:57:57.449Z,12.92
2019-05-29T22:00:35.697Z,12.90
2019-05-29T22:03:05.471Z,12.88
2019-05-29T22:05:34.891Z,12.86
2019-05-29T22:08:04.570Z,12.84
2019-05-29T22:10:34.080Z,12.77
2019-05-29T22:13:03.701Z,12.74
2019-05-29T22:15:33.105Z,12.67
2019-05-29T22:18:02.506Z,12.61
2019-05-29T22:20:31.986Z,12.59
2019-05-29T22:23:02.736Z,12.57
2019-05-29T22:25:34.517Z,12.56
2019-05-29T22:28:03.663Z,12.54
2019-05-29T22:30:33.141Z,12.49
2019-05-29T22:33:02.533Z,12.48
2019-05-29T22:35:32.022Z,12.50
2019-05-29T22:38:01.915Z,12.48
2019-05-29T22:40:31.469Z,12.50
2019-05-29T22:43:01.925Z,12.49
2019-05-29T22:45:31.364Z,12.43
2019-05-29T22:48:02.101Z,12.41
2019-05-29T22:50:31.675Z,12.37
2019-05-29T22:53:02.124Z,12.32
2019-05-29T22:55:31.808Z,12.27
2019-05-29T22:58:02.203Z,12.25
2019-05-29T23:00:31.868Z,12.23
2019-05-29T23:03:02.417Z,12.23
2019-05-29T23:05:31.905Z,12.11
2019-05-29T23:08:02.480Z,12.02
2019-05-29T23:10:32.039Z,11.97
2019-05-29T23:13:05.482Z,11.89
2019-05-29T23:15:32.538Z,11.86
2019-05-29T23:18:02.825Z,11.82
2019-05-29T23:20:32.233Z,11.79
2019-05-29T23:23:02.777Z,11.79
2019-05-29T23:25:32.328Z,11.78
2019-05-29T23:28:03.097Z,11.75
2019-05-29T23:30:32.671Z,11.69
2019-05-29T23:33:03.445Z,11.67
2019-05-29T23:35:33.023Z,11.63
2019-05-29T23:38:03.470Z,11.63
2019-05-29T23:40:33.025Z,11.61
2019-05-29T23:43:03.569Z,11.63
2019-05-29T23:45:33.084Z,11.61
2019-05-29T23:48:03.740Z,11.63
2019-05-29T23:50:33.330Z,11.61
2019-05-29T23:53:03.894Z,11.57
2019-05-29T23:55:33.470Z,11.56
2019-05-29T23:58:06.913Z,11.57
